sensor_id;sensor_type;location;lat;lon;timestamp;temperature;humidity
5508;DHT22;2776;51.046;6.772;2023-07-28T00:02:04;18.30;99.90
5508;DHT22;2776;51.046;6.772;2023-07-28T00:04:31;18.40;99.90
5508;DHT22;2776;51.046;6.772;2023-07-28T00:06:58;18.40;99.90
5508;DHT22;2776;51.046;6.772;2023-07-28T00:09:24;18.40;99.90
5508;DHT22;2776;51.046;6.772;2023-07-28T00:11:51;18.40;99.90
5508;DHT22;2776;51.046;6.772;2023-07-28T00:14:18;18.40;99.90
5508;DHT22;2776;51.046;6.772;2023-07-28T00:16:45;18.40;99.90
5508;DHT22;2776;51.046;6.772;2023-07-28T00:19:13;18.40;99.90
5508;DHT22;2776;51.046;6.772;2023-07-28T00:21:40;18.30;99.90
5508;DHT22;2776;51.046;6.772;2023-07-28T00:24:07;18.30;99.90
5508;DHT22;2776;51.046;6.772;2023-07-28T00:26:33;18.40;99.90
5508;DHT22;2776;51.046;6.772;2023-07-28T00:29:00;18.40;99.90
5508;DHT22;2776;51.046;6.772;2023-07-28T00:31:30;18.40;99.90
5508;DHT22;2776;51.046;6.772;2023-07-28T00:33:57;18.40;99.90
5508;DHT22;2776;51.046;6.772;2023-07-28T00:36:25;18.40;99.90
5508;DHT22;2776;51.046;6.772;2023-07-28T00:38:52;18.40;99.90
5508;DHT22;2776;51.046;6.772;2023-07-28T00:41:18;18.50;99.90
5508;DHT22;2776;51.046;6.772;2023-07-28T00:43:45;18.40;99.90
5508;DHT22;2776;51.046;6.772;2023-07-28T00:46:12;18.50;99.90
5508;DHT22;2776;51.046;6.772;2023-07-28T00:48:39;18.50;99.90
5508;DHT22;2776;51.046;6.772;2023-07-28T00:51:07;18.50;99.90
5508;DHT22;2776;51.046;6.772;2023-07-28T00:53:35;18.50;99.90
5508;DHT22;2776;51.046;6.772;2023-07-28T00:56:03;18.50;99.90
5508;DHT22;2776;51.046;6.772;2023-07-28T00:58:30;18.60;99.90
5508;DHT22;2776;51.046;6.772;2023-07-28T01:00:57;18.60;99.90
5508;DHT22;2776;51.046;6.772;2023-07-28T01:03:24;18.60;99.90
5508;DHT22;2776;51.046;6.772;2023-07-28T01:06:00;18.60;99.90
5508;DHT22;2776;51.046;6.772;2023-07-28T01:08:37;18.50;99.90
5508;DHT22;2776;51.046;6.772;2023-07-28T01:11:05;18.50;99.90
5508;DHT22;2776;51.046;6.772;2023-07-28T01:13:32;18.50;99.90
5508;DHT22;2776;51.046;6.772;2023-07-28T01:16:00;18.50;99.90
5508;DHT22;2776;51.046;6.772;2023-07-28T01:18:27;18.40;99.90
5508;DHT22;2776;51.046;6.772;2023-07-28T01:20:56;18.50;99.90
5508;DHT22;2776;51.046;6.772;2023-07-28T01:23:31;18.50;99.90
5508;DHT22;2776;51.046;6.772;2023-07-28T01:26:05;18.50;99.90
5508;DHT22;2776;51.046;6.772;2023-07-28T01:28:35;18.50;99.90
5508;DHT22;2776;51.046;6.772;2023-07-28T01:31:03;18.50;99.90
5508;DHT22;2776;51.046;6.772;2023-07-28T01:33:29;18.50;99.90
5508;DHT22;2776;51.046;6.772;2023-07-28T01:35:56;18.50;99.90
5508;DHT22;2776;51.046;6.772;2023-07-28T01:38:24;18.50;99.90
5508;DHT22;2776;51.046;6.772;2023-07-28T01:40:50;18.50;99.90
5508;DHT22;2776;51.046;6.772;2023-07-28T01:43:17;18.40;99.90
5508;DHT22;2776;51.046;6.772;2023-07-28T01:45:45;18.40;99.90
5508;DHT22;2776;51.046;6.772;2023-07-28T01:48:12;18.40;99.90
5508;DHT22;2776;51.046;6.772;2023-07-28T01:50:39;18.50;99.90
5508;DHT22;2776;51.046;6.772;2023-07-28T01:53:06;18.40;99.90
5508;DHT22;2776;51.046;6.772;2023-07-28T01:55:33;18.40;99.90
5508;DHT22;2776;51.046;6.772;2023-07-28T01:58:01;18.30;99.90
5508;DHT22;2776;51.046;6.772;2023-07-28T02:00:28;18.30;99.90
5508;DHT22;2776;51.046;6.772;2023-07-28T02:02:56;18.40;99.90
5508;DHT22;2776;51.046;6.772;2023-07-28T02:05:24;18.30;99.90
5508;DHT22;2776;51.046;6.772;2023-07-28T02:07:51;18.40;99.90
5508;DHT22;2776;51.046;6.772;2023-07-28T02:10:17;18.40;99.90
5508;DHT22;2776;51.046;6.772;2023-07-28T02:12:44;18.30;99.90
5508;DHT22;2776;51.046;6.772;2023-07-28T02:15:11;18.30;99.90
5508;DHT22;2776;51.046;6.772;2023-07-28T02:17:39;18.30;99.90
5508;DHT22;2776;51.046;6.772;2023-07-28T02:20:08;18.30;99.90
5508;DHT22;2776;51.046;6.772;2023-07-28T02:22:38;18.30;99.90
5508;DHT22;2776;51.046;6.772;2023-07-28T02:25:05;18.30;99.90
5508;DHT22;2776;51.046;6.772;2023-07-28T02:27:32;18.30;99.90
5508;DHT22;2776;51.046;6.772;2023-07-28T02:29:59;18.30;99.90
5508;DHT22;2776;51.046;6.772;2023-07-28T02:32:26;18.30;99.90
5508;DHT22;2776;51.046;6.772;2023-07-28T02:34:54;18.30;99.90
5508;DHT22;2776;51.046;6.772;2023-07-28T02:37:22;18.30;99.90
5508;DHT22;2776;51.046;6.772;2023-07-28T02:39:49;18.30;99.90
5508;DHT22;2776;51.046;6.772;2023-07-28T02:42:15;18.30;99.90
5508;DHT22;2776;51.046;6.772;2023-07-28T02:44:42;18.30;99.90
5508;DHT22;2776;51.046;6.772;2023-07-28T02:47:09;18.30;99.90
5508;DHT22;2776;51.046;6.772;2023-07-28T02:49:36;18.40;99.90
5508;DHT22;2776;51.046;6.772;2023-07-28T02:52:03;18.40;99.90
5508;DHT22;2776;51.046;6.772;2023-07-28T02:54:31;18.40;99.90
5508;DHT22;2776;51.046;6.772;2023-07-28T02:56:57;18.40;99.90
5508;DHT22;2776;51.046;6.772;2023-07-28T02:59:24;18.50;99.90
5508;DHT22;2776;51.046;6.772;2023-07-28T03:01:51;18.50;99.90
5508;DHT22;2776;51.046;6.772;2023-07-28T03:04:18;18.40;99.90
5508;DHT22;2776;51.046;6.772;2023-07-28T03:06:46;18.40;99.90
5508;DHT22;2776;51.046;6.772;2023-07-28T03:09:13;18.40;99.90
5508;DHT22;2776;51.046;6.772;2023-07-28T03:11:42;18.50;99.90
5508;DHT22;2776;51.046;6.772;2023-07-28T03:14:08;18.40;99.90
5508;DHT22;2776;51.046;6.772;2023-07-28T03:16:35;18.40;99.90
5508;DHT22;2776;51.046;6.772;2023-07-28T03:19:02;18.40;99.90
5508;DHT22;2776;51.046;6.772;2023-07-28T03:21:30;18.50;99.90
5508;DHT22;2776;51.046;6.772;2023-07-28T03:23:56;18.50;99.90
5508;DHT22;2776;51.046;6.772;2023-07-28T03:26:23;18.50;99.90
5508;DHT22;2776;51.046;6.772;2023-07-28T03:28:51;18.50;99.90
5508;DHT22;2776;51.046;6.772;2023-07-28T03:31:18;18.50;99.90
5508;DHT22;2776;51.046;6.772;2023-07-28T03:33:45;18.60;99.90
5508;DHT22;2776;51.046;6.772;2023-07-28T03:36:12;18.60;99.90
5508;DHT22;2776;51.046;6.772;2023-07-28T03:38:39;18.60;99.90
5508;DHT22;2776;51.046;6.772;2023-07-28T03:41:05;18.50;99.90
5508;DHT22;2776;51.046;6.772;2023-07-28T03:43:32;18.50;99.90
5508;DHT22;2776;51.046;6.772;2023-07-28T03:46:00;18.60;99.90
5508;DHT22;2776;51.046;6.772;2023-07-28T03:48:27;18.60;99.90
5508;DHT22;2776;51.046;6.772;2023-07-28T03:50:54;18.60;99.90
5508;DHT22;2776;51.046;6.772;2023-07-28T03:53:21;18.60;99.90
5508;DHT22;2776;51.046;6.772;2023-07-28T03:55:47;18.60;99.90
5508;DHT22;2776;51.046;6.772;2023-07-28T03:58:15;18.60;99.90
5508;DHT22;2776;51.046;6.772;2023-07-28T04:00:41;18.60;99.90
5508;DHT22;2776;51.046;6.772;2023-07-28T04:03:09;18.60;99.90
5508;DHT22;2776;51.046;6.772;2023-07-28T04:05:36;18.60;99.90
5508;DHT22;2776;51.046;6.772;2023-07-28T04:08:03;18.60;99.90
5508;DHT22;2776;51.046;6.772;2023-07-28T04:10:30;18.60;99.90
5508;DHT22;2776;51.046;6.772;2023-07-28T04:12:57;18.60;99.90
5508;DHT22;2776;51.046;6.772;2023-07-28T04:15:24;18.60;99.90
5508;DHT22;2776;51.046;6.772;2023-07-28T04:17:50;18.60;99.90
5508;DHT22;2776;51.046;6.772;2023-07-28T04:20:18;18.60;99.90
5508;DHT22;2776;51.046;6.772;2023-07-28T04:22:45;18.60;99.90
5508;DHT22;2776;51.046;6.772;2023-07-28T04:25:12;18.60;99.90
5508;DHT22;2776;51.046;6.772;2023-07-28T04:27:39;18.50;99.90
5508;DHT22;2776;51.046;6.772;2023-07-28T04:30:06;18.50;99.90
5508;DHT22;2776;51.046;6.772;2023-07-28T04:32:33;18.50;99.90
5508;DHT22;2776;51.046;6.772;2023-07-28T04:35:00;18.50;99.90
5508;DHT22;2776;51.046;6.772;2023-07-28T04:37:28;18.50;99.90
5508;DHT22;2776;51.046;6.772;2023-07-28T04:39:54;18.50;99.90
5508;DHT22;2776;51.046;6.772;2023-07-28T04:42:21;18.60;99.90
5508;DHT22;2776;51.046;6.772;2023-07-28T04:44:48;18.60;99.90
5508;DHT22;2776;51.046;6.772;2023-07-28T04:47:15;18.50;99.90
5508;DHT22;2776;51.046;6.772;2023-07-28T04:49:41;18.60;99.90
5508;DHT22;2776;51.046;6.772;2023-07-28T04:52:08;18.60;99.90
5508;DHT22;2776;51.046;6.772;2023-07-28T04:54:36;18.60;99.90
5508;DHT22;2776;51.046;6.772;2023-07-28T04:57:03;18.60;99.90
5508;DHT22;2776;51.046;6.772;2023-07-28T04:59:30;18.60;99.90
5508;DHT22;2776;51.046;6.772;2023-07-28T05:01:57;18.60;99.90
5508;DHT22;2776;51.046;6.772;2023-07-28T05:04:24;18.60;99.90
5508;DHT22;2776;51.046;6.772;2023-07-28T05:06:50;18.60;99.90
5508;DHT22;2776;51.046;6.772;2023-07-28T05:09:17;18.60;99.90
5508;DHT22;2776;51.046;6.772;2023-07-28T05:11:46;18.60;99.90
5508;DHT22;2776;51.046;6.772;2023-07-28T05:14:12;18.60;99.90
5508;DHT22;2776;51.046;6.772;2023-07-28T05:16:39;18.60;99.90
5508;DHT22;2776;51.046;6.772;2023-07-28T05:19:06;18.70;99.90
5508;DHT22;2776;51.046;6.772;2023-07-28T05:21:33;18.70;99.90
5508;DHT22;2776;51.046;6.772;2023-07-28T05:24:00;18.80;99.90
5508;DHT22;2776;51.046;6.772;2023-07-28T05:26:26;18.90;99.90
5508;DHT22;2776;51.046;6.772;2023-07-28T05:28:54;18.90;99.90
5508;DHT22;2776;51.046;6.772;2023-07-28T05:31:21;18.90;99.90
5508;DHT22;2776;51.046;6.772;2023-07-28T05:33:48;19.00;99.90
5508;DHT22;2776;51.046;6.772;2023-07-28T05:36:15;19.10;99.90
5508;DHT22;2776;51.046;6.772;2023-07-28T05:38:41;19.20;99.90
5508;DHT22;2776;51.046;6.772;2023-07-28T05:41:08;19.20;99.90
5508;DHT22;2776;51.046;6.772;2023-07-28T05:43:35;19.20;99.90
5508;DHT22;2776;51.046;6.772;2023-07-28T05:46:03;19.20;99.90
5508;DHT22;2776;51.046;6.772;2023-07-28T05:48:30;19.30;99.90
5508;DHT22;2776;51.046;6.772;2023-07-28T05:50:56;19.30;99.90
5508;DHT22;2776;51.046;6.772;2023-07-28T05:53:23;19.20;99.90
5508;DHT22;2776;51.046;6.772;2023-07-28T05:55:50;19.10;99.90
5508;DHT22;2776;51.046;6.772;2023-07-28T05:58:17;19.20;99.90
5508;DHT22;2776;51.046;6.772;2023-07-28T06:00:43;19.20;99.90
5508;DHT22;2776;51.046;6.772;2023-07-28T06:03:11;19.20;99.90
5508;DHT22;2776;51.046;6.772;2023-07-28T06:05:39;19.20;99.90
5508;DHT22;2776;51.046;6.772;2023-07-28T06:08:06;19.20;99.90
5508;DHT22;2776;51.046;6.772;2023-07-28T06:10:33;19.20;99.90
5508;DHT22;2776;51.046;6.772;2023-07-28T06:13:00;19.20;99.90
5508;DHT22;2776;51.046;6.772;2023-07-28T06:15:27;19.20;99.90
5508;DHT22;2776;51.046;6.772;2023-07-28T06:17:54;19.20;99.90
5508;DHT22;2776;51.046;6.772;2023-07-28T06:20:22;19.30;99.90
5508;DHT22;2776;51.046;6.772;2023-07-28T06:22:49;19.20;99.90
5508;DHT22;2776;51.046;6.772;2023-07-28T06:25:16;19.30;99.90
5508;DHT22;2776;51.046;6.772;2023-07-28T06:27:43;19.20;99.90
5508;DHT22;2776;51.046;6.772;2023-07-28T06:30:10;19.30;99.90
5508;DHT22;2776;51.046;6.772;2023-07-28T06:32:37;19.30;99.90
5508;DHT22;2776;51.046;6.772;2023-07-28T06:35:05;19.30;99.90
5508;DHT22;2776;51.046;6.772;2023-07-28T06:37:34;19.40;99.90
5508;DHT22;2776;51.046;6.772;2023-07-28T06:40:01;19.40;99.90
5508;DHT22;2776;51.046;6.772;2023-07-28T06:42:28;19.50;99.90
5508;DHT22;2776;51.046;6.772;2023-07-28T06:44:55;19.50;99.90
5508;DHT22;2776;51.046;6.772;2023-07-28T06:47:22;19.60;99.90
5508;DHT22;2776;51.046;6.772;2023-07-28T06:49:49;19.50;99.90
5508;DHT22;2776;51.046;6.772;2023-07-28T06:52:15;19.60;99.90
5508;DHT22;2776;51.046;6.772;2023-07-28T06:54:43;19.60;99.90
5508;DHT22;2776;51.046;6.772;2023-07-28T06:57:12;19.70;99.90
5508;DHT22;2776;51.046;6.772;2023-07-28T06:59:39;19.80;99.90
5508;DHT22;2776;51.046;6.772;2023-07-28T07:02:05;19.80;99.90
5508;DHT22;2776;51.046;6.772;2023-07-28T07:04:32;19.90;99.90
5508;DHT22;2776;51.046;6.772;2023-07-28T07:06:59;19.90;99.90
5508;DHT22;2776;51.046;6.772;2023-07-28T07:09:26;19.90;99.90
5508;DHT22;2776;51.046;6.772;2023-07-28T07:11:54;19.90;99.90
5508;DHT22;2776;51.046;6.772;2023-07-28T07:14:21;19.90;99.90
5508;DHT22;2776;51.046;6.772;2023-07-28T07:16:49;19.90;99.90
5508;DHT22;2776;51.046;6.772;2023-07-28T07:19:15;19.90;99.90
5508;DHT22;2776;51.046;6.772;2023-07-28T07:21:42;20.00;99.90
5508;DHT22;2776;51.046;6.772;2023-07-28T07:24:10;19.90;99.90
5508;DHT22;2776;51.046;6.772;2023-07-28T07:26:39;20.00;99.90
5508;DHT22;2776;51.046;6.772;2023-07-28T07:29:07;20.00;99.90
5508;DHT22;2776;51.046;6.772;2023-07-28T07:31:34;20.00;99.90
5508;DHT22;2776;51.046;6.772;2023-07-28T07:34:00;20.00;99.90
5508;DHT22;2776;51.046;6.772;2023-07-28T07:36:29;20.10;99.90
5508;DHT22;2776;51.046;6.772;2023-07-28T07:38:56;20.10;99.90
5508;DHT22;2776;51.046;6.772;2023-07-28T07:41:23;20.20;99.90
5508;DHT22;2776;51.046;6.772;2023-07-28T07:43:52;20.20;99.90
5508;DHT22;2776;51.046;6.772;2023-07-28T07:46:21;20.20;99.90
5508;DHT22;2776;51.046;6.772;2023-07-28T07:48:48;20.20;99.90
5508;DHT22;2776;51.046;6.772;2023-07-28T07:51:15;20.30;99.90
5508;DHT22;2776;51.046;6.772;2023-07-28T07:53:42;20.30;99.90
5508;DHT22;2776;51.046;6.772;2023-07-28T07:56:09;20.30;99.90
5508;DHT22;2776;51.046;6.772;2023-07-28T07:58:37;20.30;99.90
5508;DHT22;2776;51.046;6.772;2023-07-28T08:01:03;20.30;99.90
5508;DHT22;2776;51.046;6.772;2023-07-28T08:03:32;20.40;99.90
5508;DHT22;2776;51.046;6.772;2023-07-28T08:05:58;20.30;99.90
5508;DHT22;2776;51.046;6.772;2023-07-28T08:08:25;20.30;99.90
5508;DHT22;2776;51.046;6.772;2023-07-28T08:10:52;20.30;99.90
5508;DHT22;2776;51.046;6.772;2023-07-28T08:13:19;20.40;99.90
5508;DHT22;2776;51.046;6.772;2023-07-28T08:15:46;20.50;99.90
5508;DHT22;2776;51.046;6.772;2023-07-28T08:18:13;20.60;99.90
5508;DHT22;2776;51.046;6.772;2023-07-28T08:20:41;20.70;99.90
5508;DHT22;2776;51.046;6.772;2023-07-28T08:23:08;20.70;99.90
5508;DHT22;2776;51.046;6.772;2023-07-28T08:25:35;20.90;99.90
5508;DHT22;2776;51.046;6.772;2023-07-28T08:28:03;20.90;99.90
5508;DHT22;2776;51.046;6.772;2023-07-28T08:30:29;21.00;99.90
5508;DHT22;2776;51.046;6.772;2023-07-28T08:32:57;21.10;99.90
5508;DHT22;2776;51.046;6.772;2023-07-28T08:35:24;21.10;99.90
5508;DHT22;2776;51.046;6.772;2023-07-28T08:37:52;21.10;99.90
5508;DHT22;2776;51.046;6.772;2023-07-28T08:40:18;21.30;99.90
5508;DHT22;2776;51.046;6.772;2023-07-28T08:42:45;21.40;99.90
5508;DHT22;2776;51.046;6.772;2023-07-28T08:45:13;21.60;99.90
5508;DHT22;2776;51.046;6.772;2023-07-28T08:47:40;21.90;99.90
5508;DHT22;2776;51.046;6.772;2023-07-28T08:50:07;22.10;99.90
5508;DHT22;2776;51.046;6.772;2023-07-28T08:52:34;22.30;99.90
5508;DHT22;2776;51.046;6.772;2023-07-28T08:55:02;22.70;99.90
5508;DHT22;2776;51.046;6.772;2023-07-28T08:57:29;23.00;99.90
5508;DHT22;2776;51.046;6.772;2023-07-28T08:59:55;23.40;99.90
5508;DHT22;2776;51.046;6.772;2023-07-28T09:02:22;23.80;99.90
5508;DHT22;2776;51.046;6.772;2023-07-28T09:04:49;24.20;99.90
5508;DHT22;2776;51.046;6.772;2023-07-28T09:07:16;24.50;99.90
5508;DHT22;2776;51.046;6.772;2023-07-28T09:09:43;24.60;99.90
5508;DHT22;2776;51.046;6.772;2023-07-28T09:12:13;24.70;99.90
5508;DHT22;2776;51.046;6.772;2023-07-28T09:14:39;24.90;99.90
5508;DHT22;2776;51.046;6.772;2023-07-28T09:17:08;24.70;99.90
5508;DHT22;2776;51.046;6.772;2023-07-28T09:19:35;24.70;99.90
5508;DHT22;2776;51.046;6.772;2023-07-28T09:22:15;24.90;99.90
5508;DHT22;2776;51.046;6.772;2023-07-28T09:24:42;25.00;99.90
5508;DHT22;2776;51.046;6.772;2023-07-28T09:27:20;25.00;99.90
5508;DHT22;2776;51.046;6.772;2023-07-28T09:29:48;25.20;99.90
5508;DHT22;2776;51.046;6.772;2023-07-28T09:32:15;25.10;99.90
5508;DHT22;2776;51.046;6.772;2023-07-28T09:34:43;24.90;99.90
5508;DHT22;2776;51.046;6.772;2023-07-28T09:37:10;24.90;99.90
5508;DHT22;2776;51.046;6.772;2023-07-28T09:39:39;24.80;99.90
5508;DHT22;2776;51.046;6.772;2023-07-28T09:42:07;24.80;99.90
5508;DHT22;2776;51.046;6.772;2023-07-28T09:44:36;24.70;99.90
5508;DHT22;2776;51.046;6.772;2023-07-28T09:47:04;24.60;99.90
5508;DHT22;2776;51.046;6.772;2023-07-28T09:49:35;24.50;99.90
5508;DHT22;2776;51.046;6.772;2023-07-28T09:52:05;24.40;99.90
5508;DHT22;2776;51.046;6.772;2023-07-28T09:54:35;24.50;99.90
5508;DHT22;2776;51.046;6.772;2023-07-28T09:57:04;24.50;99.90
5508;DHT22;2776;51.046;6.772;2023-07-28T09:59:39;24.40;99.90
5508;DHT22;2776;51.046;6.772;2023-07-28T10:02:07;24.40;99.90
5508;DHT22;2776;51.046;6.772;2023-07-28T10:04:34;24.30;99.90
5508;DHT22;2776;51.046;6.772;2023-07-28T10:07:01;24.10;99.90
5508;DHT22;2776;51.046;6.772;2023-07-28T10:09:30;24.00;99.90
5508;DHT22;2776;51.046;6.772;2023-07-28T10:11:59;24.10;99.90
5508;DHT22;2776;51.046;6.772;2023-07-28T10:14:26;24.00;99.90
5508;DHT22;2776;51.046;6.772;2023-07-28T10:16:56;23.90;99.90
5508;DHT22;2776;51.046;6.772;2023-07-28T10:19:24;23.60;99.90
5508;DHT22;2776;51.046;6.772;2023-07-28T10:21:59;23.30;99.90
5508;DHT22;2776;51.046;6.772;2023-07-28T10:24:50;23.30;99.90
5508;DHT22;2776;51.046;6.772;2023-07-28T10:27:31;23.40;99.90
5508;DHT22;2776;51.046;6.772;2023-07-28T10:29:59;23.50;99.90
5508;DHT22;2776;51.046;6.772;2023-07-28T10:32:28;23.50;99.90
5508;DHT22;2776;51.046;6.772;2023-07-28T10:35:01;23.60;99.90
5508;DHT22;2776;51.046;6.772;2023-07-28T10:37:32;23.60;99.90
5508;DHT22;2776;51.046;6.772;2023-07-28T10:40:22;23.90;99.90
5508;DHT22;2776;51.046;6.772;2023-07-28T10:42:49;24.10;99.90
5508;DHT22;2776;51.046;6.772;2023-07-28T10:45:16;24.30;99.90
5508;DHT22;2776;51.046;6.772;2023-07-28T10:47:45;24.50;99.90
5508;DHT22;2776;51.046;6.772;2023-07-28T10:50:14;24.70;99.90
5508;DHT22;2776;51.046;6.772;2023-07-28T10:52:42;24.80;99.90
5508;DHT22;2776;51.046;6.772;2023-07-28T10:55:13;24.90;99.90
5508;DHT22;2776;51.046;6.772;2023-07-28T10:57:41;25.00;99.90
5508;DHT22;2776;51.046;6.772;2023-07-28T11:00:09;25.30;99.90
5508;DHT22;2776;51.046;6.772;2023-07-28T11:02:38;25.50;99.90
5508;DHT22;2776;51.046;6.772;2023-07-28T11:05:10;25.50;99.90
5508;DHT22;2776;51.046;6.772;2023-07-28T11:07:38;25.60;99.90
5508;DHT22;2776;51.046;6.772;2023-07-28T11:10:07;25.70;99.90
5508;DHT22;2776;51.046;6.772;2023-07-28T11:12:34;25.50;99.90
5508;DHT22;2776;51.046;6.772;2023-07-28T11:15:01;25.50;99.90
5508;DHT22;2776;51.046;6.772;2023-07-28T11:17:27;25.50;99.90
5508;DHT22;2776;51.046;6.772;2023-07-28T11:19:55;25.50;99.90
5508;DHT22;2776;51.046;6.772;2023-07-28T11:22:23;25.40;99.90
5508;DHT22;2776;51.046;6.772;2023-07-28T11:24:53;25.50;99.90
5508;DHT22;2776;51.046;6.772;2023-07-28T11:27:20;25.70;99.90
5508;DHT22;2776;51.046;6.772;2023-07-28T11:29:47;25.80;99.90
5508;DHT22;2776;51.046;6.772;2023-07-28T11:32:15;25.70;99.90
5508;DHT22;2776;51.046;6.772;2023-07-28T11:34:43;25.80;99.90
5508;DHT22;2776;51.046;6.772;2023-07-28T11:37:10;25.60;99.90
5508;DHT22;2776;51.046;6.772;2023-07-28T11:39:39;25.50;99.90
5508;DHT22;2776;51.046;6.772;2023-07-28T11:42:07;25.60;99.90
5508;DHT22;2776;51.046;6.772;2023-07-28T11:44:36;25.80;99.90
5508;DHT22;2776;51.046;6.772;2023-07-28T11:47:05;26.00;99.90
5508;DHT22;2776;51.046;6.772;2023-07-28T11:49:32;26.10;99.90
5508;DHT22;2776;51.046;6.772;2023-07-28T11:51:58;26.20;99.90
5508;DHT22;2776;51.046;6.772;2023-07-28T11:54:26;26.00;99.90
5508;DHT22;2776;51.046;6.772;2023-07-28T11:56:56;25.90;99.90
5508;DHT22;2776;51.046;6.772;2023-07-28T11:59:23;25.70;99.90
5508;DHT22;2776;51.046;6.772;2023-07-28T12:01:55;25.60;99.90
5508;DHT22;2776;51.046;6.772;2023-07-28T12:04:23;25.40;99.90
5508;DHT22;2776;51.046;6.772;2023-07-28T12:07:07;25.40;99.90
5508;DHT22;2776;51.046;6.772;2023-07-28T12:09:50;25.10;99.90
5508;DHT22;2776;51.046;6.772;2023-07-28T12:12:20;25.10;99.90
5508;DHT22;2776;51.046;6.772;2023-07-28T12:14:47;24.90;99.90
5508;DHT22;2776;51.046;6.772;2023-07-28T12:17:14;24.90;99.90
5508;DHT22;2776;51.046;6.772;2023-07-28T12:19:41;24.60;99.90
5508;DHT22;2776;51.046;6.772;2023-07-28T12:22:08;24.50;99.90
5508;DHT22;2776;51.046;6.772;2023-07-28T12:24:37;24.30;99.90
5508;DHT22;2776;51.046;6.772;2023-07-28T12:27:04;24.20;99.90
5508;DHT22;2776;51.046;6.772;2023-07-28T12:29:33;24.20;99.90
5508;DHT22;2776;51.046;6.772;2023-07-28T12:31:59;24.30;99.90
5508;DHT22;2776;51.046;6.772;2023-07-28T12:34:26;24.40;99.90
5508;DHT22;2776;51.046;6.772;2023-07-28T12:36:53;24.40;99.90
5508;DHT22;2776;51.046;6.772;2023-07-28T12:39:20;24.50;99.90
5508;DHT22;2776;51.046;6.772;2023-07-28T12:41:46;24.40;99.90
5508;DHT22;2776;51.046;6.772;2023-07-28T12:44:13;24.40;99.90
5508;DHT22;2776;51.046;6.772;2023-07-28T12:46:41;24.50;99.90
5508;DHT22;2776;51.046;6.772;2023-07-28T12:49:08;24.50;99.90
5508;DHT22;2776;51.046;6.772;2023-07-28T12:51:35;24.60;99.90
5508;DHT22;2776;51.046;6.772;2023-07-28T12:54:02;24.60;99.90
5508;DHT22;2776;51.046;6.772;2023-07-28T12:56:29;24.50;99.90
5508;DHT22;2776;51.046;6.772;2023-07-28T12:58:56;24.50;99.90
5508;DHT22;2776;51.046;6.772;2023-07-28T13:01:23;24.20;99.90
5508;DHT22;2776;51.046;6.772;2023-07-28T13:03:51;24.40;99.90
5508;DHT22;2776;51.046;6.772;2023-07-28T13:06:19;24.70;99.90
5508;DHT22;2776;51.046;6.772;2023-07-28T13:08:45;25.00;99.90
5508;DHT22;2776;51.046;6.772;2023-07-28T13:11:12;25.30;99.90
5508;DHT22;2776;51.046;6.772;2023-07-28T13:13:40;25.30;99.90
5508;DHT22;2776;51.046;6.772;2023-07-28T13:16:07;25.30;99.90
5508;DHT22;2776;51.046;6.772;2023-07-28T13:18:34;25.40;99.90
5508;DHT22;2776;51.046;6.772;2023-07-28T13:21:02;25.50;99.90
5508;DHT22;2776;51.046;6.772;2023-07-28T13:23:29;25.80;99.90
5508;DHT22;2776;51.046;6.772;2023-07-28T13:25:56;25.90;99.90
5508;DHT22;2776;51.046;6.772;2023-07-28T13:28:22;25.80;99.90
5508;DHT22;2776;51.046;6.772;2023-07-28T13:30:50;25.90;99.90
5508;DHT22;2776;51.046;6.772;2023-07-28T13:33:17;25.80;99.90
5508;DHT22;2776;51.046;6.772;2023-07-28T13:35:44;25.70;99.90
5508;DHT22;2776;51.046;6.772;2023-07-28T13:38:12;25.50;99.90
5508;DHT22;2776;51.046;6.772;2023-07-28T13:40:39;25.30;99.90
5508;DHT22;2776;51.046;6.772;2023-07-28T13:43:05;25.20;99.90
5508;DHT22;2776;51.046;6.772;2023-07-28T13:45:32;25.00;99.90
5508;DHT22;2776;51.046;6.772;2023-07-28T13:47:59;24.90;99.90
5508;DHT22;2776;51.046;6.772;2023-07-28T13:50:26;24.90;99.90
5508;DHT22;2776;51.046;6.772;2023-07-28T13:52:52;24.90;99.90
5508;DHT22;2776;51.046;6.772;2023-07-28T13:55:20;24.80;99.90
5508;DHT22;2776;51.046;6.772;2023-07-28T13:57:47;24.70;99.90
5508;DHT22;2776;51.046;6.772;2023-07-28T14:00:14;24.70;99.90
5508;DHT22;2776;51.046;6.772;2023-07-28T14:02:41;24.70;99.90
5508;DHT22;2776;51.046;6.772;2023-07-28T14:05:08;24.70;99.90
5508;DHT22;2776;51.046;6.772;2023-07-28T14:07:35;24.60;99.90
5508;DHT22;2776;51.046;6.772;2023-07-28T14:10:02;24.40;99.90
5508;DHT22;2776;51.046;6.772;2023-07-28T14:12:30;24.40;99.90
5508;DHT22;2776;51.046;6.772;2023-07-28T14:14:57;24.30;99.90
5508;DHT22;2776;51.046;6.772;2023-07-28T14:17:24;24.20;99.90
5508;DHT22;2776;51.046;6.772;2023-07-28T14:19:51;24.10;99.90
5508;DHT22;2776;51.046;6.772;2023-07-28T14:22:18;24.00;99.90
5508;DHT22;2776;51.046;6.772;2023-07-28T14:24:44;24.00;99.90
5508;DHT22;2776;51.046;6.772;2023-07-28T14:27:11;24.00;99.90
5508;DHT22;2776;51.046;6.772;2023-07-28T14:29:39;23.90;99.90
5508;DHT22;2776;51.046;6.772;2023-07-28T14:32:06;23.70;99.90
5508;DHT22;2776;51.046;6.772;2023-07-28T14:34:33;23.50;99.90
5508;DHT22;2776;51.046;6.772;2023-07-28T14:37:04;23.40;99.90
5508;DHT22;2776;51.046;6.772;2023-07-28T14:39:31;23.20;99.90
5508;DHT22;2776;51.046;6.772;2023-07-28T14:41:58;23.10;99.90
5508;DHT22;2776;51.046;6.772;2023-07-28T14:44:25;23.00;99.90
5508;DHT22;2776;51.046;6.772;2023-07-28T14:46:53;23.00;99.90
5508;DHT22;2776;51.046;6.772;2023-07-28T14:49:19;22.80;99.90
5508;DHT22;2776;51.046;6.772;2023-07-28T14:51:46;22.80;99.90
5508;DHT22;2776;51.046;6.772;2023-07-28T14:54:13;22.60;99.90
5508;DHT22;2776;51.046;6.772;2023-07-28T14:56:40;22.60;99.90
5508;DHT22;2776;51.046;6.772;2023-07-28T14:59:06;22.70;99.90
5508;DHT22;2776;51.046;6.772;2023-07-28T15:01:33;22.80;99.90
5508;DHT22;2776;51.046;6.772;2023-07-28T15:04:01;23.00;99.90
5508;DHT22;2776;51.046;6.772;2023-07-28T15:06:30;23.10;99.90
5508;DHT22;2776;51.046;6.772;2023-07-28T15:08:57;23.40;99.90
5508;DHT22;2776;51.046;6.772;2023-07-28T15:11:23;23.70;99.90
5508;DHT22;2776;51.046;6.772;2023-07-28T15:13:50;24.00;99.90
5508;DHT22;2776;51.046;6.772;2023-07-28T15:16:17;24.10;99.90
5508;DHT22;2776;51.046;6.772;2023-07-28T15:18:45;24.20;99.90
5508;DHT22;2776;51.046;6.772;2023-07-28T15:21:13;24.30;99.90
5508;DHT22;2776;51.046;6.772;2023-07-28T15:23:39;24.50;99.90
5508;DHT22;2776;51.046;6.772;2023-07-28T15:26:06;24.60;99.90
5508;DHT22;2776;51.046;6.772;2023-07-28T15:28:34;24.70;99.90
5508;DHT22;2776;51.046;6.772;2023-07-28T15:31:00;24.70;99.90
5508;DHT22;2776;51.046;6.772;2023-07-28T15:33:27;24.70;99.90
5508;DHT22;2776;51.046;6.772;2023-07-28T15:35:56;24.50;99.90
5508;DHT22;2776;51.046;6.772;2023-07-28T15:38:24;24.40;99.90
5508;DHT22;2776;51.046;6.772;2023-07-28T15:40:51;23.90;99.90
5508;DHT22;2776;51.046;6.772;2023-07-28T15:43:22;23.40;99.90
5508;DHT22;2776;51.046;6.772;2023-07-28T15:45:49;22.90;99.90
5508;DHT22;2776;51.046;6.772;2023-07-28T15:48:19;22.70;99.90
5508;DHT22;2776;51.046;6.772;2023-07-28T15:50:46;22.60;99.90
5508;DHT22;2776;51.046;6.772;2023-07-28T15:53:13;22.50;99.90
5508;DHT22;2776;51.046;6.772;2023-07-28T15:55:41;22.70;99.90
5508;DHT22;2776;51.046;6.772;2023-07-28T15:58:08;22.80;99.90
5508;DHT22;2776;51.046;6.772;2023-07-28T16:00:35;23.00;99.90
5508;DHT22;2776;51.046;6.772;2023-07-28T16:03:01;23.30;99.90
5508;DHT22;2776;51.046;6.772;2023-07-28T16:05:28;23.60;99.90